Time;durP1;ratioP1;P1;durP2;ratioP2;P2;SDS_P1;SDS_P2;PMS_P1;PMS_P2;Temp;Humidity;BMP_temperature;BMP_pressure;BME280_temperature;BME280_humidity;BME280_pressure;Samples;Min_cycle;Max_cycle;Signal;HPM_P1;HPM_P2
2023/05/17 00:01:41;;;;;;;21.73;13.00;;;;;;;14.57;100.00;94232.53;5018493;28;20168;-80
2023/05/17 00:04:07;;;;;;;22.10;13.38;;;;;;;14.50;100.00;94218.69;5030584;28;20325;-79
2023/05/17 00:06:33;;;;;;;20.43;13.70;;;;;;;14.47;100.00;94232.44;5024289;28;20676;-80
2023/05/17 00:08:59;;;;;;;27.57;13.97;;;;;;;14.44;100.00;94232.94;5016659;28;20164;-80
2023/05/17 00:11:24;;;;;;;23.93;13.97;;;;;;;14.35;100.00;94231.75;5023761;28;20839;-80
2023/05/17 00:13:50;;;;;;;19.97;13.33;;;;;;;14.32;100.00;94238.34;5024450;28;20556;-80
2023/05/17 00:16:15;;;;;;;16.63;12.33;;;;;;;14.20;100.00;94216.50;5023246;28;20184;-80
2023/05/17 00:18:41;;;;;;;19.40;13.33;;;;;;;14.28;100.00;94221.34;5012793;28;21064;-80
2023/05/17 00:21:06;;;;;;;19.67;12.20;;;;;;;14.21;100.00;94210.16;5012640;28;20605;-80
2023/05/17 00:23:31;;;;;;;24.17;14.00;;;;;;;14.28;100.00;94231.13;5017324;28;20168;-80
2023/05/17 00:25:57;;;;;;;24.37;16.10;;;;;;;14.19;100.00;94232.63;5017337;28;20802;-79
2023/05/17 00:28:22;;;;;;;25.02;13.55;;;;;;;14.12;100.00;94216.94;5018548;28;20251;-80
2023/05/17 00:30:47;;;;;;;18.98;12.63;;;;;;;14.22;100.00;94226.84;5021464;28;20655;-80
2023/05/17 00:33:13;;;;;;;20.67;12.60;;;;;;;14.19;100.00;94233.44;5021182;28;20180;-79
2023/05/17 00:35:38;;;;;;;18.30;11.93;;;;;;;14.13;100.00;94215.91;5027358;28;20167;-80
2023/05/17 00:38:03;;;;;;;17.63;12.20;;;;;;;14.01;100.00;94204.63;5024880;28;20204;-80
2023/05/17 00:40:29;;;;;;;20.17;14.23;;;;;;;14.14;100.00;94217.50;5020605;28;20410;-80
2023/05/17 00:42:55;;;;;;;18.83;12.82;;;;;;;14.16;100.00;94222.56;5020979;28;20191;-80
2023/05/17 00:45:20;;;;;;;19.50;12.43;;;;;;;14.06;100.00;94233.03;5020892;28;20254;-80
2023/05/17 00:47:45;;;;;;;20.27;12.23;;;;;;;13.69;100.00;94214.31;5020929;28;20259;-80
2023/05/17 00:50:12;;;;;;;19.63;11.93;;;;;;;13.52;100.00;94195.84;5026800;28;20182;-80
2023/05/17 00:52:38;;;;;;;16.80;12.20;;;;;;;13.62;100.00;94208.41;5032214;28;20571;-80
2023/05/17 00:55:03;;;;;;;21.40;13.00;;;;;;;13.59;100.00;94229.00;5029561;28;20411;-80
2023/05/17 00:57:30;;;;;;;18.43;12.07;;;;;;;13.34;100.00;94227.84;5016206;28;20838;-80
2023/05/17 00:59:57;;;;;;;16.50;11.27;;;;;;;13.49;100.00;94254.53;5023797;28;20181;-80
2023/05/17 01:02:22;;;;;;;16.93;11.30;;;;;;;13.42;100.00;94219.50;5009198;28;20587;-80
2023/05/17 01:04:48;;;;;;;23.17;10.33;;;;;;;13.55;100.00;94240.31;5016286;28;20211;-79
2023/05/17 01:07:14;;;;;;;27.08;12.85;;;;;;;13.35;100.00;94224.97;5024540;28;20429;-80
2023/05/17 01:09:40;;;;;;;18.02;11.73;;;;;;;13.45;100.00;94243.63;5023718;28;20472;-79
2023/05/17 01:12:09;;;;;;;19.67;11.13;;;;;;;13.55;100.00;94237.69;5016079;28;20167;-79
2023/05/17 01:14:57;;;;;;;15.00;10.23;;;;;;;13.60;100.00;94227.97;5027717;28;20178;-79
2023/05/17 01:17:45;;;;;;;16.10;10.10;;;;;;;13.68;100.00;94236.50;5036453;28;20160;-79
2023/05/17 01:20:20;;;;;;;15.27;9.90;;;;;;;13.66;100.00;94239.41;5018283;28;20179;-79
2023/05/17 01:23:30;;;;;;;27.33;10.20;;;;;;;13.67;100.00;94237.56;5025135;28;20176;-80
2023/05/17 01:26:19;;;;;;;12.87;9.00;;;;;;;13.58;100.00;94223.94;5007190;28;20208;-80
2023/05/17 01:28:47;;;;;;;15.80;9.93;;;;;;;13.67;100.00;94225.13;5018334;28;20160;-80
2023/05/17 01:31:13;;;;;;;15.17;9.60;;;;;;;13.47;100.00;94203.72;5026037;28;20604;-79
2023/05/17 01:33:39;;;;;;;16.87;9.03;;;;;;;13.56;100.00;94212.84;5015568;28;20180;-79
2023/05/17 01:36:05;;;;;;;17.10;9.27;;;;;;;13.51;100.00;94213.56;5015689;28;20588;-79
2023/05/17 01:38:30;;;;;;;15.03;9.33;;;;;;;13.59;100.00;94225.56;5015758;28;20168;-79
2023/05/17 01:41:00;;;;;;;17.73;9.50;;;;;;;13.54;100.00;94228.94;5024294;28;20176;-80
2023/05/17 01:43:37;;;;;;;13.37;8.23;;;;;;;13.50;100.00;94234.94;5025160;28;20169;-79
2023/05/17 01:46:36;;;;;;;16.07;8.83;;;;;;;13.40;100.00;94242.75;5017397;28;20194;-80
2023/05/17 01:49:24;;;;;;;10.77;8.27;;;;;;;13.23;100.00;94223.47;5032255;28;20606;-80
2023/05/17 01:51:49;;;;;;;16.07;8.40;;;;;;;13.37;100.00;94243.25;5024133;28;20263;-80
2023/05/17 01:54:21;;;;;;;17.40;8.63;;;;;;;13.37;100.00;94232.66;5008185;28;20263;-79
2023/05/17 01:56:57;;;;;;;15.43;7.53;;;;;;;13.35;100.00;94224.16;5026416;28;20171;-79
2023/05/17 01:59:24;;;;;;;13.00;8.50;;;;;;;13.20;100.00;94209.72;5026550;28;20646;-80
2023/05/17 02:02:04;;;;;;;13.37;8.23;;;;;;;13.24;100.00;94223.22;5023993;28;20229;-79
2023/05/17 02:04:30;;;;;;;15.10;8.27;;;;;;;13.28;100.00;94237.56;5023539;28;20707;-79
2023/05/17 02:06:58;;;;;;;15.90;8.13;;;;;;;13.14;100.00;94210.69;5014988;28;20160;-79
2023/05/17 02:09:24;;;;;;;13.90;8.40;;;;;;;13.22;100.00;94230.63;5015271;28;20543;-80
2023/05/17 02:11:49;;;;;;;14.73;8.93;;;;;;;13.06;100.00;94204.97;5023144;28;20257;-81
2023/05/17 02:14:15;;;;;;;16.30;9.57;;;;;;;12.91;100.00;94186.22;5023619;28;20172;-79
2023/05/17 02:16:41;;;;;;;17.47;9.87;;;;;;;13.11;100.00;94211.13;5023722;28;20663;-79
2023/05/17 02:19:07;;;;;;;18.67;9.43;;;;;;;13.19;100.00;94231.09;5025769;28;20251;-79
2023/05/17 02:21:33;;;;;;;11.47;8.63;;;;;;;13.16;100.00;94221.00;5029715;28;20165;-79
2023/05/17 02:23:59;;;;;;;15.50;9.60;;;;;;;13.15;100.00;94228.13;5013274;28;20183;-80
2023/05/17 02:26:25;;;;;;;19.37;11.63;;;;;;;13.15;100.00;94216.75;5025237;28;20160;-80
2023/05/17 02:28:50;;;;;;;16.60;10.60;;;;;;;13.09;100.00;94210.56;5017891;28;20175;-80
2023/05/17 02:31:15;;;;;;;18.63;12.30;;;;;;;12.87;100.00;94217.63;5024573;28;20420;-80
2023/05/17 02:33:41;;;;;;;16.73;10.17;;;;;;;12.76;100.00;94200.00;5025417;28;20176;-80
2023/05/17 02:36:06;;;;;;;15.07;9.70;;;;;;;12.94;100.00;94217.47;5025682;28;20171;-79
2023/05/17 02:38:32;;;;;;;15.00;9.70;;;;;;;12.79;100.00;94199.53;5025487;28;20211;-79
2023/05/17 02:40:57;;;;;;;14.17;9.77;;;;;;;12.81;100.00;94215.94;5025524;28;20168;-79
2023/05/17 02:43:22;;;;;;;17.77;10.63;;;;;;;12.64;100.00;94202.72;5025506;28;20198;-79
2023/05/17 02:45:48;;;;;;;17.87;9.37;;;;;;;12.70;100.00;94227.38;5025173;28;20271;-79
2023/05/17 02:48:13;;;;;;;16.93;9.77;;;;;;;12.50;100.00;94206.72;5034371;28;20535;-79
2023/05/17 02:50:38;;;;;;;15.37;10.13;;;;;;;12.56;100.00;94208.41;5034229;28;20198;-79
2023/05/17 02:53:04;;;;;;;17.70;10.03;;;;;;;12.74;100.00;94234.59;5028663;28;20258;-79
2023/05/17 02:55:29;;;;;;;16.87;10.87;;;;;;;12.68;100.00;94247.94;5021559;28;20172;-79
2023/05/17 02:57:55;;;;;;;14.90;10.43;;;;;;;12.74;100.00;94257.53;5023046;28;20232;-79
2023/05/17 03:00:20;;;;;;;15.90;9.10;;;;;;;12.73;100.00;94261.22;5023831;28;20180;-79
2023/05/17 03:02:45;;;;;;;16.50;9.57;;;;;;;12.58;100.00;94243.28;5024790;28;20212;-80
2023/05/17 03:05:11;;;;;;;20.83;8.87;;;;;;;12.70;100.00;94269.63;5024176;28;20217;-80
2023/05/17 03:07:36;;;;;;;13.07;9.43;;;;;;;12.67;100.00;94270.09;5022726;28;20170;-80
2023/05/17 03:10:02;;;;;;;13.27;9.00;;;;;;;12.61;100.00;94276.34;5021031;28;20199;-80
2023/05/17 03:12:27;;;;;;;15.33;9.73;;;;;;;12.58;100.00;94276.81;5023910;28;20169;-80
2023/05/17 03:14:53;;;;;;;15.40;10.17;;;;;;;12.54;100.00;94271.19;5020486;28;20168;-79
2023/05/17 03:17:18;;;;;;;15.17;9.97;;;;;;;12.58;100.00;94285.53;5018130;28;20200;-80
2023/05/17 03:19:43;;;;;;;18.50;10.33;;;;;;;12.54;100.00;94280.97;5014259;28;20172;-80
2023/05/17 03:22:09;;;;;;;19.50;10.47;;;;;;;12.46;100.00;94272.38;4993462;28;20207;-80
2023/05/17 03:24:35;;;;;;;24.10;13.50;;;;;;;12.55;100.00;94293.13;5024283;28;20188;-80
2023/05/17 03:27:00;;;;;;;31.33;16.80;;;;;;;12.40;100.00;94286.53;5023506;28;20410;-80
2023/05/17 03:29:25;;;;;;;29.13;14.20;;;;;;;12.43;100.00;94280.78;5024489;28;20181;-79
2023/05/17 03:31:51;;;;;;;26.93;13.93;;;;;;;12.33;100.00;94246.28;5033445;28;20164;-79
2023/05/17 03:34:16;;;;;;;21.30;12.30;;;;;;;12.54;100.00;94268.53;5033159;28;20172;-78
2023/05/17 03:36:42;;;;;;;27.00;13.10;;;;;;;12.59;100.00;94267.84;5021220;28;20190;-79
2023/05/17 03:39:07;;;;;;;25.87;13.67;;;;;;;12.59;100.00;94271.28;5027978;28;20175;-81
2023/05/17 03:41:33;;;;;;;27.37;13.23;;;;;;;12.50;100.00;94256.06;5028979;28;20168;-79
2023/05/17 03:43:58;;;;;;;22.53;14.07;;;;;;;12.54;100.00;94262.50;5023376;28;20180;-79
2023/05/17 03:46:24;;;;;;;25.77;12.77;;;;;;;12.57;100.00;94264.63;5013778;28;20243;-78
2023/05/17 03:48:50;;;;;;;22.13;13.10;;;;;;;12.57;100.00;94272.56;5013590;28;20160;-77
2023/05/17 03:51:15;;;;;;;26.13;14.07;;;;;;;12.55;100.00;94264.06;5013105;28;20179;-80
2023/05/17 03:53:42;;;;;;;24.40;12.27;;;;;;;12.59;100.00;94260.72;5027858;28;20646;-80
2023/05/17 03:56:08;;;;;;;21.33;11.77;;;;;;;12.61;100.00;94271.06;5025006;28;20725;-79
2023/05/17 03:58:33;;;;;;;22.30;11.17;;;;;;;12.50;100.00;94274.56;5008167;28;20176;-77
2023/05/17 04:00:59;;;;;;;19.77;11.37;;;;;;;12.27;100.00;94267.53;5023956;28;20190;-79
2023/05/17 04:03:24;;;;;;;21.13;11.47;;;;;;;12.36;100.00;94284.59;5022130;28;20229;-79
2023/05/17 04:05:50;;;;;;;20.60;11.60;;;;;;;12.40;100.00;94275.16;4996019;28;20319;-81
2023/05/17 04:08:16;;;;;;;57.20;19.77;;;;;;;12.45;100.00;94278.69;5013033;28;20153;-81
2023/05/17 04:10:41;;;;;;;22.23;12.47;;;;;;;12.64;100.00;94281.94;5012918;28;20214;-82
2023/05/17 04:13:10;;;;;;;19.33;12.40;;;;;;;12.78;100.00;94256.84;5013291;28;20163;-82
2023/05/17 04:15:35;;;;;;;18.83;11.57;;;;;;;13.21;100.00;94287.16;5016905;28;20673;-82
2023/05/17 04:18:01;;;;;;;19.40;11.50;;;;;;;13.47;100.00;94286.50;5016743;28;20188;-80
2023/05/17 04:20:26;;;;;;;24.17;11.10;;;;;;;13.63;100.00;94252.31;5020409;28;20176;-80
2023/05/17 04:22:52;;;;;;;21.23;10.43;;;;;;;14.12;100.00;94282.31;5006036;28;20179;-80
2023/05/17 04:25:17;;;;;;;18.47;11.13;;;;;;;14.35;98.26;94280.22;5019253;28;20196;-82
2023/05/17 04:27:45;;;;;;;30.03;9.93;;;;;;;14.46;96.51;94283.78;5003520;28;20255;-79
2023/05/17 04:30:11;;;;;;;17.77;9.87;;;;;;;14.60;95.84;94282.38;5021192;28;20258;-78
2023/05/17 04:32:36;;;;;;;25.30;9.73;;;;;;;14.63;94.51;94286.34;5012277;28;20183;-77
2023/05/17 04:35:02;;;;;;;19.87;9.73;;;;;;;14.72;94.66;94280.34;5024343;28;20179;-77
2023/05/17 04:37:27;;;;;;;20.43;10.07;;;;;;;14.85;93.41;94281.00;5009179;28;20259;-77
2023/05/17 04:39:53;;;;;;;18.00;10.30;;;;;;;14.99;92.72;94284.84;5020382;28;20654;-78
2023/05/17 04:42:18;;;;;;;15.63;10.73;;;;;;;15.14;92.33;94271.72;5009865;28;20616;-78
2023/05/17 04:44:44;;;;;;;16.80;9.60;;;;;;;15.39;90.35;94290.47;5022770;28;20192;-77
2023/05/17 04:47:09;;;;;;;20.37;10.00;;;;;;;15.62;89.26;94281.38;5023035;28;20229;-80
2023/05/17 04:49:34;;;;;;;20.17;10.23;;;;;;;15.98;88.30;94286.91;5022638;28;20159;-80
2023/05/17 04:52:00;;;;;;;23.93;11.50;;;;;;;16.03;86.41;94281.59;5013335;28;20263;-80
2023/05/17 04:54:25;;;;;;;17.27;11.07;;;;;;;16.25;86.78;94282.25;5023109;28;20200;-80
2023/05/17 04:56:51;;;;;;;17.75;10.45;;;;;;;16.48;85.18;94292.41;5005535;28;20180;-80
2023/05/17 04:59:16;;;;;;;17.20;9.93;;;;;;;16.69;83.54;94293.28;5022390;28;20182;-78
2023/05/17 05:01:42;;;;;;;20.70;10.10;;;;;;;16.54;82.93;94288.72;5021012;28;20183;-79
2023/05/17 05:04:07;;;;;;;17.20;9.70;;;;;;;16.65;83.11;94294.88;4999473;28;20234;-79
2023/05/17 05:06:33;;;;;;;17.93;9.87;;;;;;;16.84;82.37;94301.31;5023030;28;20263;-78
2023/05/17 05:09:02;;;;;;;19.77;9.85;;;;;;;16.68;80.71;94286.41;5011893;28;20555;-77
2023/05/17 05:11:28;;;;;;;19.33;10.48;;;;;;;17.02;80.26;94292.03;5020910;28;20176;-78
2023/05/17 05:13:54;;;;;;;17.60;8.68;;;;;;;17.36;78.24;94300.31;5003157;28;20207;-80
2023/05/17 05:16:19;;;;;;;15.57;9.97;;;;;;;17.41;77.44;94304.81;5020864;28;20651;-80
2023/05/17 05:18:45;;;;;;;16.90;9.50;;;;;;;17.83;77.29;94286.69;5022564;28;20259;-80
2023/05/17 05:21:10;;;;;;;17.42;9.60;;;;;;;19.03;75.53;94318.47;5019252;28;20666;-79
2023/05/17 05:23:36;;;;;;;13.90;8.68;;;;;;;19.65;72.58;94284.16;5020868;28;20180;-79
2023/05/17 05:26:01;;;;;;;15.77;8.55;;;;;;;20.67;67.85;94325.56;5020719;28;20738;-78
2023/05/17 05:28:26;;;;;;;14.18;8.93;;;;;;;21.43;65.80;94321.88;5021981;28;20892;-80
2023/05/17 05:30:59;;;;;;;12.85;8.73;;;;;;;21.90;64.43;94317.34;5005172;28;20168;-79
2023/05/17 05:33:25;;;;;;;16.63;8.93;;;;;;;22.18;60.95;94300.25;4999855;28;20173;-78
2023/05/17 05:35:50;;;;;;;19.27;9.32;;;;;;;21.63;61.68;94306.56;5001947;28;20176;-78
2023/05/17 05:38:16;;;;;;;18.08;9.55;;;;;;;21.88;63.04;94308.81;5022782;28;20176;-78
2023/05/17 05:40:41;;;;;;;14.40;8.20;;;;;;;21.15;63.78;94279.97;5022593;28;20182;-79
2023/05/17 05:43:07;;;;;;;17.30;8.90;;;;;;;21.74;63.18;94308.78;5022948;28;20540;-79
2023/05/17 05:45:32;;;;;;;18.15;7.80;;;;;;;22.24;61.39;94318.94;5022538;28;20559;-79
2023/05/17 05:47:57;;;;;;;12.73;8.52;;;;;;;22.18;61.84;94313.69;5034964;28;20266;-79
2023/05/17 05:50:23;;;;;;;20.88;8.80;;;;;;;21.50;62.28;94312.69;5026345;28;20159;-78
2023/05/17 05:52:48;;;;;;;19.77;7.68;;;;;;;21.92;61.31;94315.19;5026675;28;20612;-78
2023/05/17 05:55:13;;;;;;;16.52;8.27;;;;;;;21.95;60.89;94309.25;5016668;28;20165;-78
2023/05/17 05:57:39;;;;;;;16.55;8.93;;;;;;;21.87;62.25;94301.88;5015539;28;20195;-78
2023/05/17 06:00:05;;;;;;;15.50;8.55;;;;;;;22.07;60.11;94312.25;5020813;28;20190;-78
2023/05/17 06:02:31;;;;;;;14.68;8.98;;;;;;;21.88;61.25;94308.03;5018722;28;20168;-78
2023/05/17 06:04:56;;;;;;;19.38;8.57;;;;;;;22.01;60.88;94313.44;5024715;28;20200;-79
2023/05/17 06:07:21;;;;;;;18.17;7.60;;;;;;;21.55;61.48;94326.78;5033054;28;20179;-78
2023/05/17 06:09:47;;;;;;;13.52;7.63;;;;;;;21.55;61.46;94328.66;5020756;28;20168;-78
2023/05/17 06:12:12;;;;;;;16.13;8.43;;;;;;;21.14;63.46;94313.19;5031699;28;20234;-78
2023/05/17 06:14:38;;;;;;;14.15;8.32;;;;;;;20.86;64.06;94336.31;5025716;28;20183;-78
2023/05/17 06:17:04;;;;;;;15.50;8.48;;;;;;;20.78;64.27;94330.78;5007749;28;20196;-78
2023/05/17 06:19:30;;;;;;;19.13;9.93;;;;;;;20.47;65.04;94331.19;5025515;28;20183;-78
2023/05/17 06:21:55;;;;;;;13.90;8.00;;;;;;;20.53;65.69;94338.06;5008056;28;20191;-78
2023/05/17 06:24:20;;;;;;;12.73;7.65;;;;;;;20.87;64.25;94329.88;5016989;28;20279;-78
2023/05/17 06:26:46;;;;;;;15.45;8.38;;;;;;;21.05;63.35;94331.78;5025401;28;20179;-78
2023/05/17 06:29:11;;;;;;;14.45;8.57;;;;;;;21.18;63.22;94329.50;5025862;28;20662;-78
2023/05/17 06:31:37;;;;;;;12.00;7.50;;;;;;;20.94;63.66;94340.22;5025468;28;20199;-78
2023/05/17 06:34:02;;;;;;;15.75;7.63;;;;;;;20.80;64.12;94337.47;5014927;28;20272;-78
2023/05/17 06:36:28;;;;;;;16.42;8.68;;;;;;;20.64;65.43;94331.50;5022919;28;20625;-78
2023/05/17 06:38:53;;;;;;;13.23;7.10;;;;;;;20.70;63.76;94346.41;5022917;28;20176;-78
2023/05/17 06:41:18;;;;;;;16.95;6.18;;;;;;;20.24;63.73;94326.56;5022336;28;20180;-78
2023/05/17 06:43:44;;;;;;;11.95;7.07;;;;;;;20.29;64.69;94326.53;5029626;28;20215;-78
2023/05/17 06:46:10;;;;;;;15.05;7.18;;;;;;;20.25;65.18;94330.84;5005283;28;20204;-78
2023/05/17 06:48:35;;;;;;;11.43;7.35;;;;;;;20.46;64.42;94337.59;5021546;28;20222;-79
2023/05/17 06:51:00;;;;;;;14.60;6.50;;;;;;;20.26;64.68;94313.72;5025086;28;20176;-81
2023/05/17 06:53:26;;;;;;;12.27;5.97;;;;;;;20.72;65.23;94327.41;5006193;28;20187;-84
2023/05/17 06:55:51;;;;;;;9.20;5.07;;;;;;;20.73;64.20;94331.66;5017569;28;20184;-83
2023/05/17 06:58:17;;;;;;;20.13;6.78;;;;;;;20.69;64.91;94323.41;5022940;28;20204;-83
2023/05/17 07:00:42;;;;;;;10.38;6.28;;;;;;;20.82;65.17;94303.19;5022774;28;20200;-83
2023/05/17 07:03:08;;;;;;;11.15;5.97;;;;;;;20.59;64.92;94323.53;5022660;28;20230;-82
2023/05/17 07:05:34;;;;;;;10.88;5.95;;;;;;;20.94;65.56;94341.00;5022661;28;20199;-82
2023/05/17 07:08:00;;;;;;;13.43;6.50;;;;;;;20.74;63.98;94329.78;5022617;28;20279;-81
2023/05/17 07:10:26;;;;;;;10.30;6.00;;;;;;;20.59;65.79;94334.22;4994381;28;20264;-80
2023/05/17 07:12:52;;;;;;;12.73;5.95;;;;;;;20.59;65.68;94333.44;5014728;28;20233;-78
2023/05/17 07:15:17;;;;;;;8.32;5.60;;;;;;;20.53;66.33;94343.41;5006997;28;20655;-78
2023/05/17 07:17:43;;;;;;;11.50;6.32;;;;;;;20.67;66.46;94346.16;5010945;28;20184;-78
2023/05/17 07:20:09;;;;;;;18.95;6.38;;;;;;;20.68;65.52;94356.59;5008185;28;20628;-78
2023/05/17 07:22:36;;;;;;;11.25;6.53;;;;;;;20.39;67.42;94347.84;4994058;28;20184;-79
2023/05/17 07:25:02;;;;;;;14.48;6.03;;;;;;;20.49;68.14;94333.56;4994075;28;20192;-83
2023/05/17 07:27:27;;;;;;;17.23;6.47;;;;;;;20.31;66.01;94324.38;4994369;28;20169;-84
2023/05/17 07:29:53;;;;;;;12.10;6.80;;;;;;;20.39;66.39;94347.84;4994260;28;20188;-81
2023/05/17 07:32:18;;;;;;;14.02;6.80;;;;;;;20.24;66.16;94318.56;4993986;28;20243;-84
2023/05/17 07:34:44;;;;;;;11.45;7.00;;;;;;;20.11;66.94;94303.22;4976447;28;20177;-83
2023/05/17 07:37:10;;;;;;;13.75;6.68;;;;;;;20.28;67.73;94335.63;4977137;28;20200;-85
2023/05/17 07:39:35;;;;;;;12.18;6.25;;;;;;;20.48;66.65;94356.84;4994309;28;20256;-85
2023/05/17 07:42:01;;;;;;;17.30;6.85;;;;;;;20.70;66.21;94359.00;5031026;28;20179;-82
2023/05/17 07:44:26;;;;;;;11.30;6.20;;;;;;;20.78;66.01;94357.56;5022030;28;20248;-81
2023/05/17 07:46:51;;;;;;;13.05;6.47;;;;;;;20.53;65.27;94319.34;5022033;28;20660;-85
2023/05/17 07:49:17;;;;;;;10.25;6.00;;;;;;;20.41;66.67;94352.91;5013334;28;20263;-82
2023/05/17 07:51:42;;;;;;;10.25;5.57;;;;;;;19.78;68.01;94332.38;5013419;28;20607;-81
2023/05/17 07:54:08;;;;;;;12.48;6.85;;;;;;;19.71;69.17;94345.28;5013525;28;20306;-84
2023/05/17 07:56:33;;;;;;;16.33;6.30;;;;;;;19.95;68.81;94337.31;5012843;28;20648;-81
2023/05/17 07:58:59;;;;;;;11.80;6.75;;;;;;;20.08;68.82;94341.19;5013116;28;20176;-81
2023/05/17 08:01:25;;;;;;;11.43;7.43;;;;;;;20.18;68.30;94331.19;5013012;28;20641;-81
2023/05/17 08:03:50;;;;;;;13.63;5.70;;;;;;;19.64;68.25;94338.63;5013108;28;21150;-80
2023/05/17 08:06:16;;;;;;;14.05;6.32;;;;;;;19.61;70.47;94329.31;5012942;28;20331;-80
2023/05/17 08:08:43;;;;;;;11.77;6.35;;;;;;;19.76;69.91;94342.56;5012348;28;20558;-81
2023/05/17 08:11:09;;;;;;;9.32;6.32;;;;;;;19.89;69.60;94325.84;4998896;28;20744;-82
2023/05/17 08:13:35;;;;;;;13.73;6.90;;;;;;;19.93;69.88;94329.56;5022264;28;20168;-82
2023/05/17 08:16:02;;;;;;;20.20;8.02;;;;;;;20.22;69.92;94350.94;5023320;28;20172;-83
2023/05/17 08:18:30;;;;;;;11.35;6.22;;;;;;;20.07;68.99;94340.38;5026396;28;20663;-82
2023/05/17 08:20:56;;;;;;;13.65;6.53;;;;;;;19.92;69.34;94319.97;5012762;28;20168;-82
2023/05/17 08:23:21;;;;;;;12.10;6.90;;;;;;;19.80;69.25;94348.13;5012726;28;20253;-82
2023/05/17 08:25:47;;;;;;;14.75;7.25;;;;;;;19.12;71.58;94308.81;5012870;28;20200;-82
2023/05/17 08:28:12;;;;;;;12.85;6.50;;;;;;;18.84;73.32;94334.34;5012616;28;20160;-81
2023/05/17 08:30:38;;;;;;;13.85;6.60;;;;;;;18.89;73.25;94328.19;5012732;28;20172;-82
2023/05/17 08:33:03;;;;;;;13.60;6.70;;;;;;;18.92;72.89;94329.50;5022118;28;20203;-78
2023/05/17 08:35:30;;;;;;;19.00;7.85;;;;;;;19.19;73.48;94330.69;5013902;28;20256;-79
2023/05/17 08:37:55;;;;;;;18.92;7.63;;;;;;;19.24;72.25;94335.16;5012631;28;20189;-79
2023/05/17 08:40:22;;;;;;;14.98;7.68;;;;;;;19.40;72.27;94322.50;5018164;28;20249;-79
2023/05/17 08:42:49;;;;;;;13.13;7.10;;;;;;;19.67;71.14;94340.75;5017808;28;20188;-79
2023/05/17 08:45:16;;;;;;;20.15;8.25;;;;;;;19.71;71.42;94342.59;5023815;28;20210;-79
2023/05/17 08:47:43;;;;;;;15.35;7.28;;;;;;;19.50;71.17;94333.94;5016174;28;20691;-80
2023/05/17 08:50:10;;;;;;;15.02;7.40;;;;;;;19.41;71.56;94332.13;4999010;28;20172;-81
2023/05/17 08:52:36;;;;;;;18.80;7.93;;;;;;;19.27;72.12;94304.47;5023105;28;20177;-82
2023/05/17 08:55:04;;;;;;;17.60;7.40;;;;;;;19.37;73.29;94294.50;5028614;28;20170;-83
2023/05/17 08:57:32;;;;;;;18.50;8.57;;;;;;;19.82;72.40;94333.41;5024674;28;20180;-80
2023/05/17 09:00:11;;;;;;;13.35;7.43;;;;;;;19.65;71.09;94310.84;5025571;28;20180;-83
2023/05/17 09:02:37;;;;;;;13.25;6.82;;;;;;;19.43;71.28;94319.28;5019026;28;20175;-82
2023/05/17 09:05:05;;;;;;;11.77;6.65;;;;;;;19.48;71.26;94329.94;5016778;28;20230;-82
2023/05/17 09:07:31;;;;;;;14.30;6.43;;;;;;;19.50;71.05;94322.47;5001784;28;20172;-83
2023/05/17 09:09:57;;;;;;;13.73;7.00;;;;;;;19.43;71.01;94288.06;5011174;28;20238;-83
2023/05/17 09:12:22;;;;;;;19.17;7.55;;;;;;;19.67;71.22;94325.53;5029312;28;20186;-83
2023/05/17 09:14:48;;;;;;;13.68;6.50;;;;;;;19.31;71.13;94321.50;5021606;28;20168;-80
2023/05/17 09:17:16;;;;;;;14.20;6.07;;;;;;;19.35;71.60;94296.66;5018029;28;20191;-79
2023/05/17 09:19:44;;;;;;;12.13;6.25;;;;;;;19.44;71.60;94320.88;5018425;28;20215;-81
2023/05/17 09:22:16;;;;;;;15.32;7.07;;;;;;;19.53;71.71;94319.25;5026079;28;20283;-85
2023/05/17 09:24:42;;;;;;;12.85;7.05;;;;;;;19.30;71.46;94261.97;5023693;28;20217;-83
2023/05/17 09:27:08;;;;;;;12.48;7.20;;;;;;;19.57;71.56;94305.03;5028061;28;20176;-83
2023/05/17 09:29:34;;;;;;;19.65;8.25;;;;;;;19.47;72.16;94321.13;5012936;28;20176;-82
2023/05/17 09:32:13;;;;;;;16.67;7.88;;;;;;;19.28;76.17;94298.84;5018767;28;20168;-83
2023/05/17 09:34:40;;;;;;;16.50;9.20;;;;;;;19.25;74.28;94275.38;5026310;28;20182;-82
2023/05/17 09:37:11;;;;;;;21.10;8.50;;;;;;;19.61;72.52;94320.53;5028039;28;20300;-81
2023/05/17 09:39:37;;;;;;;13.63;7.00;;;;;;;19.75;71.83;94313.44;5026501;28;20167;-82
2023/05/17 09:42:03;;;;;;;17.58;7.05;;;;;;;19.58;71.97;94303.97;5020166;28;20214;-81
2023/05/17 09:44:28;;;;;;;11.50;6.50;;;;;;;19.77;72.33;94309.41;5023826;28;20215;-81
2023/05/17 09:46:56;;;;;;;17.17;7.30;;;;;;;19.59;71.71;94272.72;5025539;28;20227;-80
2023/05/17 09:49:26;;;;;;;14.30;7.72;;;;;;;19.60;72.48;94317.06;5025745;28;20180;-80
2023/05/17 09:51:51;;;;;;;19.52;6.75;;;;;;;;;;5032279;28;20172;-80
2023/05/17 09:54:17;;;;;;;14.07;7.25;;;;;;;19.58;72.53;94316.53;5025658;28;20255;-82
2023/05/17 09:56:43;;;;;;;13.55;6.05;;;;;;;19.49;71.89;94310.19;5024133;28;20215;-79
2023/05/17 09:59:13;;;;;;;14.30;6.47;;;;;;;19.31;72.17;94319.63;5023719;28;20184;-79
2023/05/17 10:01:42;;;;;;;14.48;6.80;;;;;;;19.18;73.47;94307.72;5023596;28;20189;-81
2023/05/17 10:04:09;;;;;;;11.45;6.18;;;;;;;19.32;73.47;94307.88;5016719;28;20271;-82
2023/05/17 10:06:37;;;;;;;11.23;6.03;;;;;;;19.55;73.41;94298.38;5023420;28;20184;-82
2023/05/17 10:09:05;;;;;;;15.38;6.65;;;;;;;19.62;72.26;94301.56;5006204;28;20188;-81
2023/05/17 10:11:33;;;;;;;14.40;5.97;;;;;;;19.38;70.78;94308.63;5006678;28;20184;-80
2023/05/17 10:14:04;;;;;;;14.68;5.93;;;;;;;19.36;71.57;94303.59;5026118;28;20175;-80
2023/05/17 10:16:33;;;;;;;16.67;6.18;;;;;;;19.15;72.05;94292.25;5025863;28;20251;-81
2023/05/17 10:18:59;;;;;;;13.02;5.75;;;;;;;19.04;72.17;94289.94;5025640;28;20180;-81
2023/05/17 10:21:25;;;;;;;12.13;5.38;;;;;;;19.06;72.32;94271.78;5023313;28;20171;-81
2023/05/17 10:23:51;;;;;;;12.95;5.70;;;;;;;19.06;72.26;94283.25;5022478;28;20177;-81
2023/05/17 10:26:17;;;;;;;16.02;6.07;;;;;;;19.12;72.90;94266.13;5021386;28;20191;-82
2023/05/17 10:28:45;;;;;;;10.90;5.43;;;;;;;18.81;72.35;94227.41;5018530;28;20184;-83
2023/05/17 10:31:11;;;;;;;11.82;5.90;;;;;;;19.01;72.37;94253.94;5022759;28;20191;-81
2023/05/17 10:33:38;;;;;;;10.48;5.10;;;;;;;19.00;72.24;94263.03;5022153;28;20678;-80
2023/05/17 10:36:05;;;;;;;12.15;5.45;;;;;;;18.65;72.96;94257.91;5005303;28;20180;-82
2023/05/17 10:38:32;;;;;;;14.02;5.35;;;;;;;18.30;73.06;94194.91;5025900;28;20619;-82
2023/05/17 10:40:58;;;;;;;10.02;4.57;;;;;;;18.17;73.69;94192.81;5025552;28;20644;-83
2023/05/17 10:43:25;;;;;;;9.85;5.38;;;;;;;17.99;73.94;94147.09;5025733;28;20262;-83
2023/05/17 10:45:50;;;;;;;12.52;5.40;;;;;;;18.36;73.55;94177.81;5022903;28;20567;-81
2023/05/17 10:48:17;;;;;;;14.20;5.63;;;;;;;18.61;73.74;94195.53;5023498;28;20257;-82
2023/05/17 10:50:45;;;;;;;17.45;7.13;;;;;;;18.23;73.47;94120.59;5024545;28;20208;-82
2023/05/17 10:53:11;;;;;;;14.85;4.80;;;;;;;18.72;72.17;94179.19;5020803;28;20169;-81
2023/05/17 10:55:40;;;;;;;9.77;4.90;;;;;;;18.58;72.89;94166.78;5020205;28;20183;-81
2023/05/17 10:58:19;;;;;;;13.90;5.28;;;;;;;18.60;73.70;94162.75;5022385;28;20165;-84
2023/05/17 11:00:48;;;;;;;12.18;5.53;;;;;;;18.64;74.36;94161.13;5028270;28;20221;-82
2023/05/17 11:03:19;;;;;;;8.52;5.05;;;;;;;18.64;73.37;94173.66;5030788;28;20228;-81
2023/05/17 11:06:11;;;;;;;10.77;5.55;;;;;;;18.71;73.63;94168.81;5006691;28;20201;-84
2023/05/17 11:08:46;;;;;;;9.02;5.00;;;;;;;18.69;73.38;94152.28;5016979;28;20161;-81
2023/05/17 11:11:11;;;;;;;11.15;5.55;;;;;;;18.82;73.90;94167.66;5023999;28;20167;-84
2023/05/17 11:13:51;;;;;;;14.85;5.50;;;;;;;18.85;72.70;94167.88;5008811;28;20662;-81
2023/05/17 11:16:19;;;;;;;12.85;5.75;;;;;;;18.96;72.50;94184.63;5014752;28;20174;-83
2023/05/17 11:18:56;;;;;;;10.90;5.30;;;;;;;18.87;72.24;94194.28;5000873;28;20569;-82